Time;durP1;ratioP1;P1;durP2;ratioP2;P2;SDS_P1;SDS_P2;PMS_P1;PMS_P2;Temp;Humidity;BMP_temperature;BMP_pressure;BME280_temperature;BME280_humidity;BME280_pressure;Samples;Min_cycle;Max_cycle;Signal;HPM_P1;HPM_P2
2023/09/14 00:01:03;;;;;;;6.78;2.60;;;;;;;;;;4982994;28;20160;-63
2023/09/14 00:03:55;;;;;;;9.50;2.70;;;;;;;;;;4982467;28;20057;-63
2023/09/14 00:06:43;;;;;;;3.38;2.58;;;;;;;;;;4981326;28;20116;-61
2023/09/14 00:09:36;;;;;;;3.40;2.53;;;;;;;;;;4977329;28;20470;-63
2023/09/14 00:12:23;;;;;;;3.70;2.47;;;;;;;;;;4978890;28;20050;-62
2023/09/14 00:15:17;;;;;;;3.42;2.40;;;;;;;;;;4974589;28;20525;-63
2023/09/14 00:18:04;;;;;;;5.15;2.30;;;;;;;;;;4976125;28;20054;-60
2023/09/14 00:20:58;;;;;;;3.88;2.50;;;;;;;;;;4975511;28;20133;-60
2023/09/14 00:23:45;;;;;;;3.90;2.47;;;;;;;;;;4973684;28;20113;-61
2023/09/14 00:26:39;;;;;;;6.57;2.78;;;;;;;;;;4973762;28;20092;-60
2023/09/14 00:29:33;;;;;;;3.55;2.35;;;;;;;;;;4980040;28;20136;-60
2023/09/14 00:32:27;;;;;;;5.00;2.55;;;;;;;;;;4981539;28;20158;-59
2023/09/14 00:35:14;;;;;;;5.50;3.10;;;;;;;;;;4980468;28;20050;-59
2023/09/14 00:38:08;;;;;;;4.03;2.83;;;;;;;;;;4979815;28;20057;-60
2023/09/14 00:40:55;;;;;;;5.22;2.15;;;;;;;;;;4983132;28;20153;-61
2023/09/14 00:43:49;;;;;;;11.25;2.30;;;;;;;;;;4983431;28;20498;-60
2023/09/14 00:46:36;;;;;;;3.72;2.15;;;;;;;;;;4984184;28;20062;-60
2023/09/14 00:49:30;;;;;;;5.93;2.30;;;;;;;;;;4988019;28;20109;-60
2023/09/14 00:52:17;;;;;;;6.38;2.33;;;;;;;;;;4985122;28;20058;-50
2023/09/14 00:55:18;;;;;;;4.00;2.40;;;;;;;;;;4982018;28;20062;-49
2023/09/14 00:58:06;;;;;;;3.25;2.13;;;;;;;;;;4978032;28;20068;-47
2023/09/14 01:01:00;;;;;;;2.78;2.15;;;;;;;;;;4982296;28;20053;-48
2023/09/14 01:03:46;;;;;;;5.18;1.80;;;;;;;;;;4981656;28;20050;-48
2023/09/14 01:06:40;;;;;;;3.78;1.77;;;;;;;;;;4982312;28;20054;-52
2023/09/14 01:09:28;;;;;;;5.40;2.50;;;;;;;;;;4983503;28;20052;-67
2023/09/14 01:12:22;;;;;;;4.55;2.17;;;;;;;;;;4977687;28;20058;-66
2023/09/14 01:15:21;;;;;;;6.53;2.30;;;;;;;;;;4980409;28;20050;-68
2023/09/14 01:18:30;;;;;;;4.30;2.28;;;;;;;;;;4979138;28;20074;-68
2023/09/14 01:21:32;;;;;;;5.05;2.30;;;;;;;;;;4979498;28;20050;-49
2023/09/14 01:24:49;;;;;;;5.07;2.33;;;;;;;;;;4978386;28;20065;-49
2023/09/14 01:27:36;;;;;;;8.23;2.88;;;;;;;;;;4952102;28;20058;-48
2023/09/14 01:30:37;;;;;;;2.70;2.17;;;;;;;;;;4978978;28;20050;-51
2023/09/14 01:33:24;;;;;;;3.67;2.72;;;;;;;;;;4982645;28;20868;-48
2023/09/14 01:36:24;;;;;;;5.55;2.40;;;;;;;;;;4978769;28;20081;-50
2023/09/14 01:39:12;;;;;;;3.92;2.60;;;;;;;;;;4983532;28;20066;-49
2023/09/14 01:42:06;;;;;;;6.25;2.35;;;;;;;;;;4980232;28;20082;-59
2023/09/14 01:44:53;;;;;;;4.97;2.65;;;;;;;;;;4989514;28;20171;-58
2023/09/14 01:47:52;;;;;;;4.25;2.90;;;;;;;;;;4981431;28;20110;-59
2023/09/14 01:50:38;;;;;;;7.22;2.63;;;;;;;;;;4988803;28;20045;-58
2023/09/14 01:53:34;;;;;;;3.83;2.13;;;;;;;;;;4986287;28;20054;-59
2023/09/14 01:56:22;;;;;;;4.93;2.65;;;;;;;;;;4983136;28;20046;-56
2023/09/14 01:59:15;;;;;;;2.72;2.03;;;;;;;;;;4982892;28;20050;-57
2023/09/14 02:02:02;;;;;;;5.97;2.35;;;;;;;;;;4987391;28;20453;-56
2023/09/14 02:04:56;;;;;;;7.18;2.55;;;;;;;;;;4988884;28;20046;-55
2023/09/14 02:07:43;;;;;;;3.60;2.45;;;;;;;;;;4984252;28;20082;-56
2023/09/14 02:10:37;;;;;;;5.38;2.40;;;;;;;;;;4983969;28;20054;-55
2023/09/14 02:13:27;;;;;;;3.88;2.67;;;;;;;;;;4984230;28;20520;-54
2023/09/14 02:16:21;;;;;;;4.15;2.50;;;;;;;;;;4987185;28;20058;-63
2023/09/14 02:19:08;;;;;;;4.57;2.05;;;;;;;;;;4980650;28;20050;-62
2023/09/14 02:22:02;;;;;;;3.33;2.55;;;;;;;;;;4983335;28;20506;-61
2023/09/14 02:24:49;;;;;;;5.47;2.40;;;;;;;;;;4982204;28;20113;-62
2023/09/14 02:27:50;;;;;;;4.93;2.35;;;;;;;;;;4980651;28;20163;-58
2023/09/14 02:30:44;;;;;;;6.82;2.40;;;;;;;;;;4970928;28;20055;-58
2023/09/14 02:33:39;;;;;;;5.78;2.60;;;;;;;;;;4979046;28;20079;-58
2023/09/14 02:36:26;;;;;;;5.07;2.78;;;;;;;;;;4979962;28;20458;-59
2023/09/14 02:39:19;;;;;;;6.95;2.40;;;;;;;;;;4979864;28;20571;-59
2023/09/14 02:42:06;;;;;;;3.15;2.00;;;;;;;;;;4980733;28;20058;-59
2023/09/14 02:45:00;;;;;;;3.95;2.22;;;;;;;;;;4979568;28;20149;-46
2023/09/14 02:47:54;;;;;;;5.95;2.35;;;;;;;;;;4975636;28;20050;-62
2023/09/14 02:50:43;;;;;;;3.42;2.25;;;;;;;;;;4981873;28;20074;-62
2023/09/14 02:53:36;;;;;;;4.88;2.63;;;;;;;;;;4979003;28;20061;-62
2023/09/14 02:56:23;;;;;;;4.95;2.45;;;;;;;;;;4979835;28;20061;-62
2023/09/14 02:59:17;;;;;;;2.97;2.15;;;;;;;;;;4981953;28;20097;-62
2023/09/14 03:02:11;;;;;;;3.45;2.40;;;;;;;;;;4980817;28;20070;-63
2023/09/14 03:05:06;;;;;;;4.40;2.90;;;;;;;;;;4980131;28;20054;-63
2023/09/14 03:07:52;;;;;;;3.17;2.30;;;;;;;;;;4975456;28;20125;-63
2023/09/14 03:10:46;;;;;;;3.78;2.53;;;;;;;;;;4976754;28;20058;-63
2023/09/14 03:13:33;;;;;;;7.10;2.53;;;;;;;;;;4980991;28;20632;-52
2023/09/14 03:16:27;;;;;;;5.40;2.63;;;;;;;;;;4977705;28;20058;-60
2023/09/14 03:19:14;;;;;;;6.55;2.58;;;;;;;;;;4979555;28;20177;-60
2023/09/14 03:22:08;;;;;;;4.18;2.75;;;;;;;;;;4982824;28;20619;-59
2023/09/14 03:25:02;;;;;;;4.47;2.33;;;;;;;;;;4980165;28;20570;-60
2023/09/14 03:27:50;;;;;;;3.22;2.50;;;;;;;;;;4977517;28;20073;-60
2023/09/14 03:30:30;;;;;;;5.63;2.70;;;;;;;;;;4979225;28;20561;-62
2023/09/14 03:33:17;;;;;;;10.43;3.10;;;;;;;;;;4972129;28;21219;-48
2023/09/14 03:36:11;;;;;;;3.78;2.80;;;;;;;;;;4979324;28;20065;-47
2023/09/14 03:38:58;;;;;;;4.75;2.80;;;;;;;;;;4981126;28;20474;-51
2023/09/14 03:41:52;;;;;;;6.63;2.92;;;;;;;;;;4974174;28;20058;-49
2023/09/14 03:44:39;;;;;;;6.30;3.03;;;;;;;;;;4983702;28;20061;-47
2023/09/14 03:47:33;;;;;;;4.55;2.70;;;;;;;;;;4979495;28;20055;-50
2023/09/14 03:50:21;;;;;;;4.95;2.72;;;;;;;;;;4980727;28;20061;-57
2023/09/14 03:53:15;;;;;;;7.85;2.85;;;;;;;;;;4980799;28;20112;-51
2023/09/14 03:56:03;;;;;;;4.20;2.88;;;;;;;;;;4979489;28;20066;-49
2023/09/14 03:58:56;;;;;;;5.55;2.30;;;;;;;;;;4979613;28;20151;-51
2023/09/14 04:01:43;;;;;;;3.35;2.30;;;;;;;;;;4976164;28;20136;-53
2023/09/14 04:04:41;;;;;;;5.63;2.67;;;;;;;;;;4981019;28;20062;-53
2023/09/14 04:07:28;;;;;;;5.03;2.65;;;;;;;;;;4983644;28;20124;-62
2023/09/14 04:10:23;;;;;;;11.00;3.38;;;;;;;;;;4977002;28;20058;-67
2023/09/14 04:13:29;;;;;;;4.55;2.55;;;;;;;;;;4980611;28;20561;-69
2023/09/14 04:16:28;;;;;;;4.95;2.33;;;;;;;;;;4980659;28;20065;-68
2023/09/14 04:19:12;;;;;;;6.68;2.80;;;;;;;;;;4978519;28;20069;-69
2023/09/14 04:22:05;;;;;;;3.53;2.53;;;;;;;;;;4982240;28;20081;-68
2023/09/14 04:24:51;;;;;;;5.32;2.30;;;;;;;;;;4982613;28;20058;-59
2023/09/14 04:27:45;;;;;;;4.20;2.67;;;;;;;;;;4979257;28;20140;-59
2023/09/14 04:31:08;;;;;;;5.72;2.80;;;;;;;;;;4958874;28;20051;-59
2023/09/14 04:33:56;;;;;;;8.35;2.38;;;;;;;;;;4960239;28;20082;-59
2023/09/14 04:36:43;;;;;;;3.30;2.17;;;;;;;;;;4956178;28;20050;-60
2023/09/14 04:39:38;;;;;;;4.50;2.45;;;;;;;;;;4955860;28;20062;-59
2023/09/14 04:42:24;;;;;;;3.80;2.40;;;;;;;;;;4960426;28;20051;-59
2023/09/14 04:45:18;;;;;;;4.10;2.72;;;;;;;;;;4953728;28;20070;-57
2023/09/14 04:48:06;;;;;;;3.22;2.33;;;;;;;;;;4957121;28;20186;-59
2023/09/14 04:50:59;;;;;;;6.00;2.53;;;;;;;;;;4965291;28;20463;-59
2023/09/14 04:53:46;;;;;;;5.35;2.80;;;;;;;;;;4959381;28;20059;-59
2023/09/14 04:56:40;;;;;;;10.80;2.90;;;;;;;;;;4962095;28;20043;-59
2023/09/14 04:59:27;;;;;;;3.25;2.40;;;;;;;;;;4964976;28;20109;-59
2023/09/14 05:02:21;;;;;;;4.55;2.75;;;;;;;;;;4961814;28;20525;-62
2023/09/14 05:05:08;;;;;;;5.90;2.70;;;;;;;;;;4961036;28;20049;-61
2023/09/14 05:08:02;;;;;;;6.38;2.42;;;;;;;;;;4968293;28;20054;-59
2023/09/14 05:10:50;;;;;;;3.30;2.63;;;;;;;;;;4965894;28;20118;-59
2023/09/14 05:13:44;;;;;;;15.02;3.03;;;;;;;;;;4962099;28;20054;-59
2023/09/14 05:16:31;;;;;;;3.97;2.75;;;;;;;;;;4967168;28;20415;-59
2023/09/14 05:19:25;;;;;;;4.30;3.00;;;;;;;;;;4969222;28;20093;-59
2023/09/14 05:22:12;;;;;;;4.35;2.38;;;;;;;;;;4972234;28;20550;-59
2023/09/14 05:25:06;;;;;;;3.85;2.50;;;;;;;;;;4967864;28;20518;-50
2023/09/14 05:27:53;;;;;;;3.92;2.53;;;;;;;;;;4967239;28;20055;-51
2023/09/14 05:30:54;;;;;;;3.78;2.72;;;;;;;;;;4965291;28;20068;-48
2023/09/14 05:33:41;;;;;;;5.35;2.38;;;;;;;;;;4959693;28;20062;-46
2023/09/14 05:36:35;;;;;;;6.38;2.70;;;;;;;;;;4956906;28;20065;-53
2023/09/14 05:39:29;;;;;;;5.32;2.40;;;;;;;;;;4971180;28;20051;-60
2023/09/14 05:42:16;;;;;;;3.88;2.33;;;;;;;;;;4969893;28;20392;-50
2023/09/14 05:45:14;;;;;;;5.28;2.65;;;;;;;;;;4971808;28;20090;-47
2023/09/14 05:48:04;;;;;;;6.78;2.65;;;;;;;;;;4970662;28;20153;-46
2023/09/14 05:50:55;;;;;;;4.28;2.80;;;;;;;;;;4968005;28;20055;-49
2023/09/14 05:53:42;;;;;;;8.45;3.22;;;;;;;;;;4969271;28;20423;-47
2023/09/14 05:56:36;;;;;;;7.43;2.90;;;;;;;;;;4970890;28;21936;-59
2023/09/14 05:59:23;;;;;;;5.05;2.70;;;;;;;;;;4971188;28;20058;-59
2023/09/14 06:02:18;;;;;;;6.75;2.90;;;;;;;;;;4970958;28;20050;-60
2023/09/14 06:05:04;;;;;;;7.28;3.00;;;;;;;;;;4969392;28;20426;-59
2023/09/14 06:07:58;;;;;;;7.18;2.90;;;;;;;;;;4966582;28;20058;-59
2023/09/14 06:10:46;;;;;;;10.65;3.63;;;;;;;;;;4967976;28;21524;-59
2023/09/14 06:13:39;;;;;;;7.32;3.03;;;;;;;;;;4970022;28;20046;-59
2023/09/14 06:16:26;;;;;;;23.55;6.70;;;;;;;;;;4968234;28;20106;-59
2023/09/14 06:19:20;;;;;;;29.67;6.65;;;;;;;;;;4961524;28;20091;-59
2023/09/14 06:22:08;;;;;;;33.30;6.00;;;;;;;;;;4965639;28;20055;-61
2023/09/14 06:25:01;;;;;;;18.52;4.13;;;;;;;;;;4966142;28;20058;-62
2023/09/14 06:27:49;;;;;;;34.42;6.40;;;;;;;;;;4967039;28;20051;-62
2023/09/14 06:30:50;;;;;;;29.67;6.85;;;;;;;;;;4988406;28;20058;-61
2023/09/14 06:33:37;;;;;;;80.30;7.82;;;;;;;;;;4985727;28;20104;-62
2023/09/14 06:36:31;;;;;;;112.22;10.50;;;;;;;;;;4987902;28;20110;-60
2023/09/14 06:39:18;;;;;;;87.07;9.02;;;;;;;;;;4985285;28;20057;-68
2023/09/14 06:42:12;;;;;;;278.40;17.23;;;;;;;;;;4988056;28;20184;-67
2023/09/14 06:45:07;;;;;;;247.13;16.20;;;;;;;;;;4983691;28;20061;-67
2023/09/14 06:48:00;;;;;;;85.53;8.35;;;;;;;;;;4983948;28;20137;-67
2023/09/14 06:50:54;;;;;;;72.55;7.47;;;;;;;;;;4986759;28;20050;-69
2023/09/14 06:53:50;;;;;;;60.17;6.65;;;;;;;;;;4986751;28;20466;-55
2023/09/14 06:56:35;;;;;;;79.47;8.57;;;;;;;;;;4987944;28;20057;-54
2023/09/14 06:59:34;;;;;;;103.25;7.85;;;;;;;;;;4990234;28;20229;-54
2023/09/14 07:02:20;;;;;;;183.48;11.02;;;;;;;;;;4987200;28;20976;-55
2023/09/14 07:05:14;;;;;;;97.57;9.10;;;;;;;;;;4989229;28;20421;-66
2023/09/14 07:08:01;;;;;;;35.97;6.60;;;;;;;;;;4982744;28;20102;-66
2023/09/14 07:10:55;;;;;;;45.80;6.80;;;;;;;;;;4983257;28;20058;-67
2023/09/14 07:13:42;;;;;;;45.22;6.97;;;;;;;;;;4985655;28;20050;-64
2023/09/14 07:16:36;;;;;;;23.10;5.75;;;;;;;;;;4982488;28;20054;-67
2023/09/14 07:19:26;;;;;;;65.80;8.27;;;;;;;;;;4984005;28;20566;-66
2023/09/14 07:22:18;;;;;;;483.13;24.77;;;;;;;;;;4986559;28;20061;-59
2023/09/14 07:25:12;;;;;;;215.88;13.05;;;;;;;;;;4984969;28;20054;-59
2023/09/14 07:27:59;;;;;;;292.20;16.40;;;;;;;;;;4986044;28;20066;-59
2023/09/14 07:31:00;;;;;;;72.50;8.25;;;;;;;;;;4985039;28;20050;-60
2023/09/14 07:33:54;;;;;;;102.90;9.40;;;;;;;;;;4983617;28;20193;-59
2023/09/14 07:36:42;;;;;;;37.97;7.55;;;;;;;;;;4982827;28;20046;-48
2023/09/14 07:39:36;;;;;;;65.35;7.72;;;;;;;;;;4984394;28;20184;-47
2023/09/14 07:42:24;;;;;;;105.90;9.25;;;;;;;;;;4983203;28;20522;-52
2023/09/14 07:45:17;;;;;;;26.63;7.53;;;;;;;;;;4987211;28;20078;-50
2023/09/14 07:48:06;;;;;;;18.92;6.75;;;;;;;;;;4987647;28;20050;-50
2023/09/14 07:50:59;;;;;;;40.95;6.88;;;;;;;;;;4990636;28;20054;-60
2023/09/14 07:53:46;;;;;;;12.25;5.45;;;;;;;;;;4984824;28;20106;-59
2023/09/14 07:56:40;;;;;;;12.80;5.85;;;;;;;;;;4987563;28;20050;-60
2023/09/14 07:59:28;;;;;;;14.68;5.55;;;;;;;;;;4986151;28;20058;-60
2023/09/14 08:02:21;;;;;;;14.98;5.40;;;;;;;;;;4985689;28;20054;-55
2023/09/14 08:05:08;;;;;;;9.27;5.10;;;;;;;;;;4984829;28;20058;-48
2023/09/14 08:08:04;;;;;;;10.07;4.97;;;;;;;;;;4982204;28;20058;-49
2023/09/14 08:10:50;;;;;;;9.27;5.10;;;;;;;;;;4982468;28;20072;-49
2023/09/14 08:13:44;;;;;;;6.75;4.55;;;;;;;;;;4986730;28;20109;-48
2023/09/14 08:16:32;;;;;;;7.82;4.50;;;;;;;;;;4983942;28;20449;-48
2023/09/14 08:19:25;;;;;;;12.70;5.03;;;;;;;;;;4980292;28;20054;-60
2023/09/14 08:22:22;;;;;;;8.70;4.70;;;;;;;;;;4983321;28;20575;-60
2023/09/14 08:25:15;;;;;;;10.32;5.45;;;;;;;;;;4986100;28;20120;-60
2023/09/14 08:28:07;;;;;;;8.43;5.32;;;;;;;;;;4984095;28;20061;-60
2023/09/14 08:31:01;;;;;;;9.15;5.25;;;;;;;;;;4965359;28;20463;-62
2023/09/14 08:33:54;;;;;;;7.60;4.20;;;;;;;;;;4967025;28;20070;-60
2023/09/14 08:36:42;;;;;;;10.02;5.00;;;;;;;;;;4964828;28;20061;-60
2023/09/14 08:39:36;;;;;;;10.95;6.47;;;;;;;;;;4965921;28;20136;-60
2023/09/14 08:42:24;;;;;;;13.48;8.07;;;;;;;;;;4964104;28;20541;-60
2023/09/14 08:45:21;;;;;;;8.38;5.70;;;;;;;;;;4963084;28;20054;-60
2023/09/14 08:48:15;;;;;;;8.30;4.13;;;;;;;;;;4966657;28;20422;-65
2023/09/14 08:51:10;;;;;;;13.52;6.57;;;;;;;;;;4967411;28;20046;-65
2023/09/14 08:54:04;;;;;;;10.98;6.25;;;;;;;;;;4965180;28;20141;-65
2023/09/14 08:56:58;;;;;;;11.95;6.72;;;;;;;;;;4954956;28;20051;-65
2023/09/14 08:59:45;;;;;;;10.05;7.10;;;;;;;;;;4954891;28;20426;-59
2023/09/14 09:02:39;;;;;;;14.23;7.65;;;;;;;;;;4965815;28;20055;-50
2023/09/14 09:05:27;;;;;;;12.05;6.32;;;;;;;;;;4954367;28;20054;-51
2023/09/14 09:08:20;;;;;;;9.43;6.18;;;;;;;;;;4962865;28;20059;-51
2023/09/14 09:11:07;;;;;;;13.75;5.70;;;;;;;;;;4963110;28;20102;-51
2023/09/14 09:14:01;;;;;;;8.70;5.90;;;;;;;;;;4958898;28;20098;-49
2023/09/14 09:16:49;;;;;;;8.68;5.15;;;;;;;;;;4959243;28;20059;-53
2023/09/14 09:19:51;;;;;;;8.02;5.03;;;;;;;;;;4962143;28;20314;-51
2023/09/14 09:22:39;;;;;;;7.30;4.28;;;;;;;;;;4951275;28;20063;-53
2023/09/14 09:25:43;;;;;;;6.22;4.38;;;;;;;;;;4955337;28;20058;-50
2023/09/14 09:28:30;;;;;;;10.25;4.63;;;;;;;;;;4960601;28;20059;-62
2023/09/14 09:31:39;;;;;;;6.93;4.55;;;;;;;;;;4981579;28;20077;-65
2023/09/14 09:34:33;;;;;;;6.30;4.32;;;;;;;;;;4981163;28;20050;-65
2023/09/14 09:37:27;;;;;;;8.88;4.63;;;;;;;;;;4983469;28;20066;-65
2023/09/14 09:40:15;;;;;;;7.50;5.17;;;;;;;;;;4986188;28;20430;-65
2023/09/14 09:43:10;;;;;;;11.40;4.85;;;;;;;;;;4980999;28;20048;-65
2023/09/14 09:45:57;;;;;;;7.03;4.90;;;;;;;;;;4981195;28;20046;-65
2023/09/14 09:48:52;;;;;;;6.97;4.15;;;;;;;;;;4982043;28;20054;-64
2023/09/14 09:51:39;;;;;;;6.65;3.88;;;;;;;;;;4978870;28;20066;-64
2023/09/14 09:54:35;;;;;;;7.65;4.03;;;;;;;;;;4979736;28;20357;-60
2023/09/14 09:57:20;;;;;;;5.65;3.80;;;;;;;;;;4983839;28;20047;-46
2023/09/14 10:00:15;;;;;;;8.73;3.80;;;;;;;;;;4986172;28;20082;-60
2023/09/14 10:03:03;;;;;;;5.82;3.38;;;;;;;;;;4983778;28;20055;-60
2023/09/14 10:05:57;;;;;;;3.47;2.58;;;;;;;;;;4989924;28;20065;-60
2023/09/14 10:08:52;;;;;;;4.95;2.90;;;;;;;;;;4986231;28;20058;-60
2023/09/14 10:11:47;;;;;;;4.32;2.38;;;;;;;;;;4985195;28;20061;-60
2023/09/14 10:14:35;;;;;;;3.67;2.28;;;;;;;;;;4984283;28;20118;-51
2023/09/14 10:17:30;;;;;;;6.47;2.35;;;;;;;;;;4982166;28;20544;-52
2023/09/14 10:20:16;;;;;;;4.68;2.45;;;;;;;;;;4984470;28;20058;-52
2023/09/14 10:23:15;;;;;;;3.75;2.58;;;;;;;;;;4984809;28;20043;-62
2023/09/14 10:26:02;;;;;;;;;;;;;;;;;;4987060;28;20065;-62
2023/09/14 10:29:03;;;;;;;5.18;2.50;;;;;;;;;;4979359;28;19925;-62
2023/09/14 10:31:57;;;;;;;4.00;2.22;;;;;;;;;;4968409;28;20495;-62
2023/09/14 10:34:52;;;;;;;5.82;2.20;;;;;;;;;;4972902;28;20055;-62
2023/09/14 10:37:41;;;;;;;3.87;2.37;;;;;;;;;;4966504;28;20102;-62
2023/09/14 10:40:43;;;;;;;2.90;2.15;;;;;;;;;;4967403;28;20079;-62
2023/09/14 10:43:31;;;;;;;7.22;2.13;;;;;;;;;;4967327;28;20050;-49
2023/09/14 10:46:35;;;;;;;3.38;2.10;;;;;;;;;;4966404;28;20438;-46
2023/09/14 10:49:42;;;;;;;4.18;2.28;;;;;;;;;;4967420;28;20054;-46
2023/09/14 10:52:37;;;;;;;4.05;2.20;;;;;;;;;;4959441;28;20051;-65
2023/09/14 10:55:26;;;;;;;4.50;2.42;;;;;;;;;;4964384;28;20198;-62
2023/09/14 10:58:19;;;;;;;5.47;2.55;;;;;;;;;;4963776;28;20054;-63
2023/09/14 11:01:10;;;;;;;2.80;2.25;;;;;;;;;;4970568;28;20608;-62
2023/09/14 11:04:19;;;;;;;7.57;2.50;;;;;;;;;;4969988;28;20059;-62
2023/09/14 11:07:10;;;;;;;2.60;1.90;;;;;;;;;;4968752;28;20055;-62
2023/09/14 11:10:04;;;;;;;3.75;2.10;;;;;;;;;;4969633;28;20519;-58
2023/09/14 11:12:52;;;;;;;5.50;2.60;;;;;;;;;;4966439;28;20103;-58
2023/09/14 11:15:49;;;;;;;4.65;1.90;;;;;;;;;;4967475;28;20306;-58
2023/09/14 11:18:51;;;;;;;4.97;2.00;;;;;;;;;;4971296;28;20060;-58
2023/09/14 11:21:45;;;;;;;4.78;1.75;;;;;;;;;;4969088;28;20162;-54
2023/09/14 11:24:41;;;;;;;3.97;2.50;;;;;;;;;;4966072;28;20051;-61
2023/09/14 11:27:41;;;;;;;5.03;2.03;;;;;;;;;;4968290;28;20069;-61
2023/09/14 11:30:48;;;;;;;2.45;1.63;;;;;;;;;;4973891;28;20132;-61
2023/09/14 11:33:38;;;;;;;2.92;2.13;;;;;;;;;;4984319;28;20108;-61
2023/09/14 11:36:42;;;;;;;2.85;1.70;;;;;;;;;;4983711;28;20054;-61
2023/09/14 11:39:35;;;;;;;2.85;1.70;;;;;;;;;;4976816;28;20602;-56
2023/09/14 11:42:51;;;;;;;4.70;2.00;;;;;;;;;;4976584;28;20072;-59
2023/09/14 11:46:03;;;;;;;3.17;1.88;;;;;;;;;;4983688;28;20059;-58
2023/09/14 11:48:55;;;;;;;1.90;1.42;;;;;;;;;;4983123;28;20054;-49
2023/09/14 11:51:54;;;;;;;5.93;1.92;;;;;;;;;;4985436;28;20054;-58
2023/09/14 11:54:46;;;;;;;3.05;1.73;;;;;;;;;;4988581;28;20062;-58
2023/09/14 11:57:39;;;;;;;4.22;1.83;;;;;;;;;;4982018;28;20057;-59
2023/09/14 12:00:36;;;;;;;2.40;1.70;;;;;;;;;;4989769;28;20070;-58
2023/09/14 12:03:31;;;;;;;2.45;1.50;;;;;;;;;;4986059;28;20117;-58
2023/09/14 12:06:22;;;;;;;3.75;1.80;;;;;;;;;;4986423;28;20070;-60
2023/09/14 12:09:15;;;;;;;1.75;1.52;;;;;;;;;;4985708;28;20521;-62
2023/09/14 12:12:09;;;;;;;1.50;1.40;;;;;;;;;;4984764;28;20145;-62
2023/09/14 12:15:02;;;;;;;2.60;1.52;;;;;;;;;;4983813;28;20105;-62
2023/09/14 12:17:50;;;;;;;2.63;1.80;;;;;;;;;;4981104;28;20052;-50
2023/09/14 12:20:45;;;;;;;2.58;1.67;;;;;;;;;;4982469;28;20054;-58
2023/09/14 12:23:33;;;;;;;4.85;1.60;;;;;;;;;;4981222;28;20054;-56
2023/09/14 12:26:26;;;;;;;4.93;1.95;;;;;;;;;;4985555;28;20078;-58
2023/09/14 12:29:22;;;;;;;2.65;1.60;;;;;;;;;;4980347;28;20081;-58
2023/09/14 12:32:22;;;;;;;1.40;1.00;;;;;;;;;;4980579;28;20050;-59
2023/09/14 12:35:15;;;;;;;5.10;1.80;;;;;;;;;;4983262;28;20061;-47
2023/09/14 12:38:06;;;;;;;3.40;1.60;;;;;;;;;;4979004;28;20057;-49
2023/09/14 12:41:14;;;;;;;2.40;1.42;;;;;;;;;;4981489;28;20141;-51
2023/09/14 12:44:07;;;;;;;2.05;1.63;;;;;;;;;;4981058;28;20050;-52
2023/09/14 12:46:55;;;;;;;4.35;1.65;;;;;;;;;;4983049;28;20057;-62
2023/09/14 12:49:49;;;;;;;2.05;1.55;;;;;;;;;;4983847;28;20054;-61
2023/09/14 12:52:38;;;;;;;4.28;1.58;;;;;;;;;;4964429;28;20112;-61
2023/09/14 12:55:31;;;;;;;3.20;1.80;;;;;;;;;;4976031;28;20066;-61
2023/09/14 12:58:25;;;;;;;3.20;1.73;;;;;;;;;;4976769;28;20444;-61
2023/09/14 13:01:19;;;;;;;4.93;1.60;;;;;;;;;;4977991;28;20104;-61
2023/09/14 13:04:10;;;;;;;2.10;1.40;;;;;;;;;;4985200;28;20058;-61
2023/09/14 13:07:03;;;;;;;2.90;1.63;;;;;;;;;;4982634;28;20108;-61
2023/09/14 13:09:48;;;;;;;2.83;1.80;;;;;;;;;;4988265;28;20053;-61
2023/09/14 13:12:43;;;;;;;4.72;1.83;;;;;;;;;;4977754;28;20407;-61
2023/09/14 13:15:31;;;;;;;5.95;1.70;;;;;;;;;;4974917;28;20544;-64
2023/09/14 13:18:25;;;;;;;1.63;1.33;;;;;;;;;;4986872;28;20050;-60
2023/09/14 13:21:12;;;;;;;3.20;1.80;;;;;;;;;;4983111;28;20058;-61
2023/09/14 13:24:07;;;;;;;3.47;1.70;;;;;;;;;;4982016;28;20558;-61
2023/09/14 13:26:53;;;;;;;2.95;1.70;;;;;;;;;;4979939;28;20057;-61
2023/09/14 13:30:00;;;;;;;4.45;1.90;;;;;;;;;;4980863;28;20054;-61
2023/09/14 13:32:58;;;;;;;2.75;1.48;;;;;;;;;;4954236;28;20118;-58
2023/09/14 13:35:54;;;;;;;4.70;1.80;;;;;;;;;;4952343;28;20526;-58
2023/09/14 13:38:39;;;;;;;4.15;1.70;;;;;;;;;;4982363;28;20050;-57
2023/09/14 13:41:33;;;;;;;3.45;1.73;;;;;;;;;;4972734;28;20073;-58
2023/09/14 13:44:23;;;;;;;5.88;2.13;;;;;;;;;;4980377;28;20141;-47
2023/09/14 13:47:18;;;;;;;3.75;1.80;;;;;;;;;;4983404;28;20058;-62
2023/09/14 13:50:05;;;;;;;4.30;2.10;;;;;;;;;;4983447;28;20061;-62
2023/09/14 13:52:59;;;;;;;2.55;1.67;;;;;;;;;;4984248;28;20056;-62
2023/09/14 13:55:47;;;;;;;3.95;1.80;;;;;;;;;;4981377;28;20070;-61
2023/09/14 13:58:40;;;;;;;5.32;2.10;;;;;;;;;;4972054;28;20058;-61
2023/09/14 14:01:30;;;;;;;2.50;1.58;;;;;;;;;;4974997;28;20274;-62
2023/09/14 14:04:23;;;;;;;5.72;1.80;;;;;;;;;;4975424;28;20054;-63
2023/09/14 14:07:13;;;;;;;9.00;1.90;;;;;;;;;;4973435;28;20062;-65
2023/09/14 14:10:08;;;;;;;7.20;2.20;;;;;;;;;;4977057;28;20125;-62
2023/09/14 14:12:54;;;;;;;3.63;2.10;;;;;;;;;;4972458;28;20507;-63
2023/09/14 14:15:50;;;;;;;4.25;2.15;;;;;;;;;;4976232;28;20429;-60
2023/09/14 14:18:36;;;;;;;3.22;1.88;;;;;;;;;;4982304;28;20062;-60
2023/09/14 14:21:30;;;;;;;4.75;2.00;;;;;;;;;;4980828;28;20057;-60
2023/09/14 14:24:18;;;;;;;6.70;1.98;;;;;;;;;;4984577;28;20061;-60
2023/09/14 14:27:15;;;;;;;3.70;1.80;;;;;;;;;;4982684;28;20573;-60
2023/09/14 14:30:09;;;;;;;2.75;1.98;;;;;;;;;;4973513;28;20046;-58
2023/09/14 14:32:42;;;;;;;3.45;1.83;;;;;;;;;;4979865;28;20058;-63
2023/09/14 14:35:29;;;;;;;2.83;1.98;;;;;;;;;;4980941;28;20081;-63
2023/09/14 14:38:24;;;;;;;3.40;1.77;;;;;;;;;;4979182;28;20050;-62
2023/09/14 14:41:11;;;;;;;2.58;2.08;;;;;;;;;;4979694;28;20054;-64
2023/09/14 14:44:10;;;;;;;3.88;1.95;;;;;;;;;;4981452;28;20141;-63
2023/09/14 14:47:03;;;;;;;3.22;1.85;;;;;;;;;;4981101;28;20503;-55
2023/09/14 14:49:57;;;;;;;3.20;1.73;;;;;;;;;;4980008;28;20062;-58
2023/09/14 14:52:51;;;;;;;3.42;1.60;;;;;;;;;;4970544;28;20058;-58
2023/09/14 14:55:47;;;;;;;2.83;1.65;;;;;;;;;;4975690;28;20562;-59
2023/09/14 14:58:41;;;;;;;4.68;1.98;;;;;;;;;;4984730;28;20077;-59
2023/09/14 15:01:28;;;;;;;5.43;2.03;;;;;;;;;;4985027;28;20058;-58
2023/09/14 15:04:21;;;;;;;3.05;1.65;;;;;;;;;;4983802;28;20617;-58
2023/09/14 15:07:10;;;;;;;2.47;1.60;;;;;;;;;;4986304;28;20069;-56
2023/09/14 15:10:03;;;;;;;2.60;1.70;;;;;;;;;;4986423;28;20503;-47
2023/09/14 15:12:53;;;;;;;7.03;1.83;;;;;;;;;;4985493;28;20514;-48
2023/09/14 15:15:44;;;;;;;4.57;1.95;;;;;;;;;;4986434;28;20050;-46
2023/09/14 15:18:39;;;;;;;3.17;1.67;;;;;;;;;;4985713;28;20068;-50
2023/09/14 15:21:26;;;;;;;4.07;1.60;;;;;;;;;;4986138;28;20116;-50
2023/09/14 15:24:20;;;;;;;4.35;1.98;;;;;;;;;;4982655;28;20117;-48
2023/09/14 15:27:08;;;;;;;1.75;1.10;;;;;;;;;;4982344;28;20116;-45
2023/09/14 15:30:11;;;;;;;5.00;2.00;;;;;;;;;;4979074;28;20046;-49
2023/09/14 15:32:56;;;;;;;8.52;1.80;;;;;;;;;;4964325;28;20050;-45
2023/09/14 15:35:50;;;;;;;3.38;1.60;;;;;;;;;;4965857;28;20508;-64
2023/09/14 15:38:41;;;;;;;4.90;2.08;;;;;;;;;;4964522;28;20510;-52
2023/09/14 15:41:31;;;;;;;9.55;2.00;;;;;;;;;;4958903;28;20479;-46
2023/09/14 15:44:19;;;;;;;5.63;2.25;;;;;;;;;;4958988;28;20058;-50
2023/09/14 15:47:12;;;;;;;8.43;2.10;;;;;;;;;;4963206;28;20119;-48
2023/09/14 15:50:00;;;;;;;2.90;1.50;;;;;;;;;;4967884;28;20575;-48
2023/09/14 15:52:53;;;;;;;4.47;1.50;;;;;;;;;;4960555;28;20055;-64
2023/09/14 15:55:48;;;;;;;1.77;1.33;;;;;;;;;;4962866;28;20082;-58
2023/09/14 15:58:35;;;;;;;5.43;1.63;;;;;;;;;;4965271;28;20043;-58
2023/09/14 16:01:24;;;;;;;6.68;1.88;;;;;;;;;;4958932;28;20058;-57
2023/09/14 16:04:13;;;;;;;3.60;1.73;;;;;;;;;;4964441;28;20499;-58
2023/09/14 16:07:05;;;;;;;4.85;1.20;;;;;;;;;;4969431;28;20507;-58
2023/09/14 16:09:52;;;;;;;6.97;1.52;;;;;;;;;;4962929;28;20050;-58
2023/09/14 16:12:26;;;;;;;4.40;1.60;;;;;;;;;;4959607;28;20061;-58
2023/09/14 16:15:14;;;;;;;4.35;1.38;;;;;;;;;;4966539;28;20066;-49
2023/09/14 16:18:07;;;;;;;7.25;1.80;;;;;;;;;;4962464;28;20058;-47
2023/09/14 16:20:55;;;;;;;3.95;1.13;;;;;;;;;;4962992;28;20589;-49
2023/09/14 16:23:48;;;;;;;5.40;1.50;;;;;;;;;;4961507;28;20062;-50
2023/09/14 16:26:36;;;;;;;6.80;1.70;;;;;;;;;;4960116;28;20051;-49
2023/09/14 16:29:42;;;;;;;2.78;1.35;;;;;;;;;;4963401;28;20066;-64
2023/09/14 16:32:29;;;;;;;3.80;1.55;;;;;;;;;;4979162;28;20065;-59
2023/09/14 16:35:23;;;;;;;7.85;1.70;;;;;;;;;;4983808;28;20056;-59
2023/09/14 16:38:11;;;;;;;4.18;1.50;;;;;;;;;;4981132;28;20484;-58
2023/09/14 16:41:04;;;;;;;3.13;1.40;;;;;;;;;;4982972;28;20086;-58
2023/09/14 16:43:51;;;;;;;6.82;1.70;;;;;;;;;;4979990;28;20498;-58
2023/09/14 16:46:45;;;;;;;4.53;1.70;;;;;;;;;;4982466;28;20731;-58
2023/09/14 16:49:33;;;;;;;6.28;1.40;;;;;;;;;;4983187;28;20054;-56
2023/09/14 16:52:26;;;;;;;8.25;1.60;;;;;;;;;;4984852;28;20481;-65
2023/09/14 16:55:13;;;;;;;3.72;1.40;;;;;;;;;;4985133;28;20105;-64
2023/09/14 16:58:02;;;;;;;5.95;1.40;;;;;;;;;;4981823;28;20046;-65
2023/09/14 17:00:49;;;;;;;3.17;1.30;;;;;;;;;;4982276;28;20065;-65
2023/09/14 17:03:43;;;;;;;6.38;1.95;;;;;;;;;;4977388;28;20058;-64
2023/09/14 17:06:31;;;;;;;6.20;1.80;;;;;;;;;;4984219;28;20177;-58
2023/09/14 17:15:52;;;;;;;8.45;1.75;;;;;;;;;;4984906;28;20652;-56